Time;durP1;ratioP1;P1;durP2;ratioP2;P2;SDS_P1;SDS_P2;PMS_P1;PMS_P2;Temp;Humidity;BMP_temperature;BMP_pressure;BME280_temperature;BME280_humidity;BME280_pressure;Samples;Min_cycle;Max_cycle;Signal;HPM_P1;HPM_P2
2024/02/17 00:02:29;;;;;;;;;;;;;;;26.75;38.81;94902.31;4977452;28;7070;-42
2024/02/17 00:04:55;;;;;;;;;;;;;;;26.76;38.31;94903.81;4995921;28;7645;-42
2024/02/17 00:07:45;;;;;;;;;;;;;;;26.75;38.41;94914.09;5008991;28;7286;-43
2024/02/17 00:10:11;;;;;;;;;;;;;;;26.75;38.52;94913.34;4994941;28;7229;-42
2024/02/17 00:12:37;;;;;;;;;;;;;;;26.76;38.69;94920.34;4995639;28;7213;-38
2024/02/17 00:15:05;;;;;;;;;;;;;;;26.77;38.11;94914.31;4998327;28;7335;-39
2024/02/17 00:17:36;;;;;;;;;;;;;;;26.79;38.18;94920.13;4990999;28;7320;-38
2024/02/17 00:20:40;;;;;;;;;;;;;;;26.78;38.22;94918.59;4992477;28;7180;-38
2024/02/17 00:23:22;;;;;;;;;;;;;;;26.77;38.25;94924.63;5008799;28;7899;-38
2024/02/17 00:25:48;;;;;;;;;;;;;;;26.80;38.12;94926.38;4999187;28;7082;-38
2024/02/17 00:28:14;;;;;;;;;;;;;;;26.79;38.08;94930.41;4997303;28;7401;-38
2024/02/17 00:30:40;;;;;;;;;;;;;;;26.79;38.07;94933.16;5023250;28;7072;-38
2024/02/17 00:33:07;;;;;;;;;;;;;;;26.79;38.14;94939.44;5032365;28;7337;-39
2024/02/17 00:35:55;;;;;;;;;;;;;;;26.79;37.76;94935.91;5038014;28;9138;-39
2024/02/17 00:38:44;;;;;;;;;;;;;;;26.77;38.78;94938.44;5029970;28;8034;-38
2024/02/17 00:41:10;;;;;;;;;;;;;;;26.78;38.15;94939.91;5037607;28;8774;-39
2024/02/17 00:43:38;;;;;;;;;;;;;;;26.75;38.20;94944.44;5041300;28;7064;-40
2024/02/17 00:46:04;;;;;;;;;;;;;;;26.73;38.11;94935.19;5041607;28;7099;-39
2024/02/17 00:48:32;;;;;;;;;;;;;;;26.76;38.23;94947.97;5042164;28;7342;-38
2024/02/17 00:51:12;;;;;;;;;;;;;;;26.75;38.12;94946.47;5032993;28;7173;-39
2024/02/17 00:53:42;;;;;;;;;;;;;;;26.75;38.35;94949.22;5033123;28;9115;-38
2024/02/17 00:56:15;;;;;;;;;;;;;;;26.75;38.08;94947.19;5033721;28;9124;-39
2024/02/17 00:58:57;;;;;;;;;;;;;;;26.77;38.46;94949.47;5038366;28;7109;-39
2024/02/17 01:01:29;;;;;;;;;;;;;;;26.77;38.08;94949.47;5037203;28;8984;-39
2024/02/17 01:04:03;;;;;;;;;;;;;;;26.77;37.93;94955.72;5037708;28;7199;-39
2024/02/17 01:06:39;;;;;;;;;;;;;;;26.77;38.26;94949.47;5037497;28;7189;-40
2024/02/17 01:09:10;;;;;;;;;;;;;;;26.77;38.24;94957.75;5042482;28;7354;-39
2024/02/17 01:11:48;;;;;;;;;;;;;;;26.77;38.19;94961.25;5057805;28;7293;-38
2024/02/17 01:14:25;;;;;;;;;;;;;;;26.75;38.05;94957.50;5052846;28;7276;-38
2024/02/17 01:17:05;;;;;;;;;;;;;;;26.73;38.33;94960.75;5039044;28;9118;-39
2024/02/17 01:19:33;;;;;;;;;;;;;;;26.74;38.33;94965.03;5038208;28;7242;-39
2024/02/17 01:22:02;;;;;;;;;;;;;;;26.76;38.05;94959.00;5043963;28;7016;-39
2024/02/17 01:24:35;;;;;;;;;;;;;;;26.75;38.08;94966.50;5043557;28;9123;-39
2024/02/17 01:27:09;;;;;;;;;;;;;;;26.75;38.55;94971.31;5047500;28;7196;-38
2024/02/17 01:29:54;;;;;;;;;;;;;;;26.74;38.15;94967.78;5022146;28;7318;-38
2024/02/17 01:32:21;;;;;;;;;;;;;;;26.75;38.09;94966.50;5039274;28;7296;-38
2024/02/17 01:35:13;;;;;;;;;;;;;;;26.74;38.10;94967.78;5036976;28;9401;-38
2024/02/17 01:37:49;;;;;;;;;;;;;;;26.74;38.29;94965.03;5036536;28;7280;-38
2024/02/17 01:40:27;;;;;;;;;;;;;;;26.76;37.95;94962.50;5037229;28;8753;-38
2024/02/17 01:42:54;;;;;;;;;;;;;;;26.75;37.96;94969.28;5043942;28;7374;-38
2024/02/17 01:45:20;;;;;;;;;;;;;;;26.77;37.79;94971.56;5047319;28;7047;-38
2024/02/17 01:47:47;;;;;;;;;;;;;;;26.76;38.16;94970.03;5037542;28;9224;-38
2024/02/17 01:50:14;;;;;;;;;;;;;;;26.76;38.05;94972.78;5037056;28;7280;-39
2024/02/17 01:52:41;;;;;;;;;;;;;;;26.73;37.94;94971.78;5045718;28;9525;-38
2024/02/17 01:55:09;;;;;;;;;;;;;;;26.75;38.62;94974.06;5041976;28;9343;-39
2024/02/17 01:57:40;;;;;;;;;;;;;;;26.77;38.07;94980.56;5038545;28;7009;-39
2024/02/17 02:00:11;;;;;;;;;;;;;;;26.74;38.02;94972.53;5027573;28;9149;-38
2024/02/17 02:02:40;;;;;;;;;;;;;;;26.77;37.82;94977.81;5012557;28;9374;-38
2024/02/17 02:05:13;;;;;;;;;;;;;;;26.78;37.94;94975.78;5035605;28;9466;-39
2024/02/17 02:07:39;;;;;;;;;;;;;;;26.75;37.89;94982.34;5049837;28;7016;-38
2024/02/17 02:10:09;;;;;;;;;;;;;;;26.75;37.69;94982.34;5039398;28;8778;-39
2024/02/17 02:12:35;;;;;;;;;;;;;;;26.74;37.87;94983.59;5040851;28;8714;-39
2024/02/17 02:15:09;;;;;;;;;;;;;;;26.74;37.98;94980.81;5036777;28;7411;-39
2024/02/17 02:17:35;;;;;;;;;;;;;;;26.72;38.17;94975.78;5024192;28;7624;-38
2024/02/17 02:20:01;;;;;;;;;;;;;;;26.72;38.10;94984.06;5036168;28;7058;-39
2024/02/17 02:23:03;;;;;;;;;;;;;;;26.74;37.80;94989.09;5035737;28;7278;-39
2024/02/17 02:25:39;;;;;;;;;;;;;;;26.74;38.16;94980.81;4994564;28;7755;-38
2024/02/17 02:28:11;;;;;;;;;;;;;;;26.72;37.81;94977.78;4978310;28;7376;-38
2024/02/17 02:30:40;;;;;;;;;;;;;;;26.72;37.96;94984.06;4982447;28;9190;-38
2024/02/17 02:33:15;;;;;;;;;;;;;;;26.72;38.17;94986.06;4991503;28;8882;-38
2024/02/17 02:35:42;;;;;;;;;;;;;;;26.73;37.78;94995.91;4978523;28;7119;-38
2024/02/17 02:38:18;;;;;;;;;;;;;;;26.72;38.02;94989.59;4978741;28;7108;-38
2024/02/17 02:40:44;;;;;;;;;;;;;;;26.72;37.76;94991.59;4971330;28;7806;-38
2024/02/17 02:43:10;;;;;;;;;;;;;;;26.71;38.06;94992.84;4975556;28;6980;-38
2024/02/17 02:45:38;;;;;;;;;;;;;;;26.70;37.96;95003.13;4996516;28;7045;-38
2024/02/17 02:48:05;;;;;;;;;;;;;;;26.71;38.09;95004.63;4982106;28;9430;-38
2024/02/17 02:51:18;;;;;;;;;;;;;;;26.69;37.97;95000.88;4978389;28;7145;-38
2024/02/17 02:54:11;;;;;;;;;;;;;;;26.68;38.07;95002.13;4978573;28;7628;-38
2024/02/17 02:56:39;;;;;;;;;;;;;;;26.67;37.79;95004.13;4994227;28;7203;-38
2024/02/17 02:59:25;;;;;;;;;;;;;;;26.67;37.85;95006.13;5008510;28;8823;-38
2024/02/17 03:02:09;;;;;;;;;;;;;;;26.69;38.04;95009.16;5029853;28;7243;-38
2024/02/17 03:04:48;;;;;;;;;;;;;;;26.68;37.86;95008.41;5035887;28;7071;-38
2024/02/17 03:07:25;;;;;;;;;;;;;;;26.70;38.07;95011.41;5051246;28;7066;-38
2024/02/17 03:10:05;;;;;;;;;;;;;;;26.69;37.82;95011.91;5043712;28;7631;-38
2024/02/17 03:12:42;;;;;;;;;;;;;;;26.68;37.62;95019.44;5035943;28;7208;-38
2024/02/17 03:15:24;;;;;;;;;;;;;;;26.67;38.05;95017.19;5034714;28;9128;-38
2024/02/17 03:17:59;;;;;;;;;;;;;;;26.66;38.36;95021.22;5035228;28;7461;-38
2024/02/17 03:20:50;;;;;;;;;;;;;;;26.66;37.64;95026.72;5042352;28;7329;-38
2024/02/17 03:23:22;;;;;;;;;;;;;;;26.64;38.37;95023.72;5022286;28;7029;-38
2024/02/17 03:25:57;;;;;;;;;;;;;;;26.64;37.80;95023.72;5035333;28;7111;-38
2024/02/17 03:28:34;;;;;;;;;;;;;;;26.64;38.06;95023.72;5037812;28;7897;-38
2024/02/17 03:31:00;;;;;;;;;;;;;;;26.67;37.97;95028.97;5034896;28;9218;-38
2024/02/17 03:33:41;;;;;;;;;;;;;;;26.67;38.02;95037.25;5041356;28;8768;-38
2024/02/17 03:36:50;;;;;;;;;;;;;;;26.69;37.79;95039.50;5045158;28;6934;-38
2024/02/17 03:39:46;;;;;;;;;;;;;;;26.66;37.94;95038.53;5034308;28;7460;-38
2024/02/17 03:42:12;;;;;;;;;;;;;;;26.66;37.54;95040.53;5030054;28;7064;-38
2024/02/17 03:44:38;;;;;;;;;;;;;;;26.63;38.32;95042.28;5048260;28;7850;-39
2024/02/17 03:47:04;;;;;;;;;;;;;;;26.65;38.04;95044.53;5034238;28;7435;-39
2024/02/17 03:49:29;;;;;;;;;;;;;;;26.65;38.06;95052.81;5034424;28;9051;-38
2024/02/17 03:52:33;;;;;;;;;;;;;;;26.67;38.20;95051.03;5034018;28;6938;-38
2024/02/17 03:55:29;;;;;;;;;;;;;;;26.68;38.30;95046.28;4925945;28;9071;-39
2024/02/17 03:58:29;;;;;;;;;;;;;;;26.67;37.99;95045.53;4899196;29;7272;-38
2024/02/17 04:01:14;;;;;;;;;;;;;;;26.67;37.77;95051.03;4881340;29;7315;-38
2024/02/17 04:03:43;;;;;;;;;;;;;;;26.66;37.89;95055.06;4899060;29;8068;-39
2024/02/17 04:06:26;;;;;;;;;;;;;;;26.64;38.06;95054.81;4884015;29;7262;-38
2024/02/17 04:08:54;;;;;;;;;;;;;;;26.62;38.21;95053.81;4896908;29;7277;-38
2024/02/17 04:11:20;;;;;;;;;;;;;;;26.63;38.09;95066.34;4895516;29;7284;-38
2024/02/17 04:13:46;;;;;;;;;;;;;;;26.59;38.14;95063.09;4878505;29;6997;-39
2024/02/17 04:16:45;;;;;;;;;;;;;;;26.64;38.24;95065.84;4896965;29;8760;-38
2024/02/17 04:19:26;;;;;;;;;;;;;;;26.62;37.81;95071.09;4913949;29;9541;-38
2024/02/17 04:21:54;;;;;;;;;;;;;;;26.61;37.56;95069.63;4909894;29;7638;-38
2024/02/17 04:24:55;;;;;;;;;;;;;;;26.62;37.97;95075.91;4905915;29;9406;-38
2024/02/17 04:27:41;;;;;;;;;;;;;;;26.60;38.01;95079.13;4850933;29;7067;-39
2024/02/17 04:30:07;;;;;;;;;;;;;;;26.59;38.09;95082.41;4909979;29;9177;-38
2024/02/17 04:32:33;;;;;;;;;;;;;;;26.60;37.97;95094.97;4897476;29;7063;-38
2024/02/17 04:35:00;;;;;;;;;;;;;;;26.59;37.97;95093.44;4938876;28;9075;-38
2024/02/17 04:37:35;;;;;;;;;;;;;;;26.61;37.77;95096.44;4953290;28;7271;-38
2024/02/17 04:40:13;;;;;;;;;;;;;;;26.59;37.87;95101.72;4939846;28;9118;-38
2024/02/17 04:42:39;;;;;;;;;;;;;;;26.59;37.98;95098.97;4954174;28;9163;-38
2024/02/17 04:45:17;;;;;;;;;;;;;;;26.58;38.13;95109.22;4938128;28;7248;-39
2024/02/17 04:47:54;;;;;;;;;;;;;;;26.55;37.72;95104.75;4957041;28;7277;-39
2024/02/17 04:50:31;;;;;;;;;;;;;;;26.59;38.36;95110.00;4935476;29;9236;-39
2024/02/17 04:53:16;;;;;;;;;;;;;;;26.60;38.41;95114.28;4953991;29;8030;-39
2024/02/17 04:56:03;;;;;;;;;;;;;;;26.59;38.27;95121.78;4960211;28;9367;-39
2024/02/17 04:58:50;;;;;;;;;;;;;;;26.56;38.59;95122.78;4953917;29;7184;-39
2024/02/17 05:01:29;;;;;;;;;;;;;;;26.57;37.91;95120.78;4991018;28;7193;-39
2024/02/17 05:04:03;;;;;;;;;;;;;;;26.55;38.38;95126.03;5034534;28;9243;-39
2024/02/17 05:06:31;;;;;;;;;;;;;;;26.55;38.13;95131.56;5035781;28;6961;-39
2024/02/17 05:09:02;;;;;;;;;;;;;;;26.55;38.59;95129.56;5032446;28;9408;-40
2024/02/17 05:11:31;;;;;;;;;;;;;;;26.57;37.97;95134.56;5035696;28;9042;-39
2024/02/17 05:14:00;;;;;;;;;;;;;;;26.55;38.16;95131.56;5035136;28;7137;-40
2024/02/17 05:17:16;;;;;;;;;;;;;;;26.58;38.50;95133.31;5022677;28;7033;-39
2024/02/17 05:20:15;;;;;;;;;;;;;;;26.59;38.08;95138.34;4972998;28;7086;-39
2024/02/17 05:22:54;;;;;;;;;;;;;;;26.59;38.16;95134.81;4942425;29;9463;-39
2024/02/17 05:25:31;;;;;;;;;;;;;;;26.55;38.12;95135.09;4937591;29;7189;-40
2024/02/17 05:28:16;;;;;;;;;;;;;;;26.58;38.06;95138.81;4922667;29;7284;-39
2024/02/17 05:30:53;;;;;;;;;;;;;;;26.55;38.08;95132.31;4937543;29;9348;-40
2024/02/17 05:33:30;;;;;;;;;;;;;;;26.56;37.84;95135.81;4934702;29;9079;-39
2024/02/17 05:35:58;;;;;;;;;;;;;;;26.53;38.38;95134.06;4924259;29;9456;-40
2024/02/17 05:38:55;;;;;;;;;;;;;;;26.56;38.40;95135.81;4944614;29;7568;-39
2024/02/17 05:41:22;;;;;;;;;;;;;;;26.56;37.96;95141.34;4896050;29;7164;-40
2024/02/17 05:43:48;;;;;;;;;;;;;;;26.54;38.08;95146.59;4896971;29;9250;-39
2024/02/17 05:46:16;;;;;;;;;;;;;;;26.55;37.88;95146.13;4896908;29;7190;-39
2024/02/17 05:48:45;;;;;;;;;;;;;;;26.54;38.26;95146.59;4884674;29;8791;-39
2024/02/17 05:51:11;;;;;;;;;;;;;;;26.54;38.41;95152.13;4899905;29;7380;-40
2024/02/17 05:53:50;;;;;;;;;;;;;;;26.54;38.48;95154.88;4880678;29;7254;-40
2024/02/17 05:56:52;;;;;;;;;;;;;;;26.56;38.99;95163.41;4886455;29;6998;-41
2024/02/17 05:59:18;;;;;;;;;;;;;;;26.55;38.30;95159.16;4918099;29;7686;-39
2024/02/17 06:01:47;;;;;;;;;;;;;;;26.54;38.25;95163.16;4922603;29;7238;-57
2024/02/17 06:04:21;;;;;;;;;;;;;;;26.50;38.30;95159.88;4919548;29;9629;-53
2024/02/17 06:06:53;;;;;;;;;;;;;;;26.51;38.27;95158.66;4932650;29;9189;-48
2024/02/17 06:09:20;;;;;;;;;;;;;;;26.50;38.29;95162.66;4935150;29;7216;-52
2024/02/17 06:11:48;;;;;;;;;;;;;;;26.53;38.18;95167.19;4918504;29;8107;-53
2024/02/17 06:14:15;;;;;;;;;;;;;;;26.51;38.23;95169.69;4925302;29;8795;-51
2024/02/17 06:16:42;;;;;;;;;;;;;;;26.55;38.52;95170.19;4911474;28;7272;-54
2024/02/17 06:21:55;;;;;;;;;;;;;;;26.54;38.56;95174.19;4995770;28;7235;-53
2024/02/17 06:24:20;;;;;;;;;;;;;;;26.53;38.16;95167.94;4983920;28;8768;-49
2024/02/17 06:26:59;;;;;;;;;;;;;;;26.53;38.09;95173.47;5009069;28;7919;-51
2024/02/17 06:29:33;;;;;;;;;;;;;;;26.52;38.23;95177.44;4981725;28;9401;-52
2024/02/17 06:32:02;;;;;;;;;;;;;;;26.53;38.89;95176.22;4989748;28;7210;-52
2024/02/17 06:34:43;;;;;;;;;;;;;;;26.52;38.40;95171.94;5026748;28;8244;-52
2024/02/17 06:37:24;;;;;;;;;;;;;;;26.53;38.04;95184.50;5036274;28;7265;-53
2024/02/17 06:40:09;;;;;;;;;;;;;;;26.55;38.35;95189.50;5036662;28;7352;-52
2024/02/17 06:42:35;;;;;;;;;;;;;;;26.55;38.06;95195.03;5043785;28;7696;-53
2024/02/17 06:45:01;;;;;;;;;;;;;;;26.54;38.22;95196.25;5046079;28;7261;-53
2024/02/17 06:47:30;;;;;;;;;;;;;;;26.52;38.70;95202.28;5012696;28;8015;-50
2024/02/17 06:50:00;;;;;;;;;;;;;;;26.53;38.72;95203.81;5034607;28;8536;-53
2024/02/17 06:52:27;;;;;;;;;;;;;;;26.48;38.70;95199.00;5034293;28;7074;-50
2024/02/17 06:54:53;;;;;;;;;;;;;;;26.50;38.94;95199.28;5041423;28;7301;-48
2024/02/17 06:57:22;;;;;;;;;;;;;;;26.51;38.37;95197.28;5036199;28;9137;-51
2024/02/17 06:59:47;;;;;;;;;;;;;;;26.51;38.30;95203.53;5037654;28;9169;-52
2024/02/17 07:02:16;;;;;;;;;;;;;;;26.50;38.46;95204.03;5046140;28;7102;-48
2024/02/17 07:05:00;;;;;;;;;;;;;;;26.51;38.53;95208.31;5036354;28;7224;-52
2024/02/17 07:08:16;;;;;;;;;;;;;;;26.52;38.45;95213.31;5034722;28;7189;-50
2024/02/17 07:11:11;;;;;;;;;;;;;;;26.54;38.74;95212.81;5035710;28;7260;-50
2024/02/17 07:14:14;;;;;;;;;;;;;;;26.52;38.44;95216.06;5034305;28;9147;-56
2024/02/17 07:16:40;;;;;;;;;;;;;;;26.50;38.57;95212.31;5007676;28;7381;-56
2024/02/17 07:19:07;;;;;;;;;;;;;;;26.49;39.02;95222.56;5030222;28;7194;-57
2024/02/17 07:21:44;;;;;;;;;;;;;;;26.52;38.65;95231.88;5013724;28;8013;-56
2024/02/17 07:24:27;;;;;;;;;;;;;;;26.52;38.65;95229.88;4997369;28;7136;-56
2024/02/17 07:27:04;;;;;;;;;;;;;;;26.51;38.66;95231.09;5013652;28;7667;-56
2024/02/17 07:29:39;;;;;;;;;;;;;;;26.55;38.98;95228.13;5013456;28;7286;-56
2024/02/17 07:32:05;;;;;;;;;;;;;;;26.53;38.68;95228.63;4997016;28;7092;-56
2024/02/17 07:34:51;;;;;;;;;;;;;;;26.50;38.96;95231.63;5013014;28;7216;-56
2024/02/17 07:37:28;;;;;;;;;;;;;;;26.52;38.79;95242.91;5013490;28;7330;-56
2024/02/17 07:40:08;;;;;;;;;;;;;;;26.52;38.63;95240.16;5013307;28;9154;-56
2024/02/17 07:42:35;;;;;;;;;;;;;;;26.47;38.95;95246.41;5013281;28;7129;-56
2024/02/17 07:45:01;;;;;;;;;;;;;;;26.49;39.08;95254.94;5013007;28;9056;-56
2024/02/17 07:47:27;;;;;;;;;;;;;;;26.45;38.97;95259.94;5012489;28;7214;-56
2024/02/17 07:49:53;;;;;;;;;;;;;;;26.46;39.51;95261.44;5016652;28;7096;-56
2024/02/17 07:52:47;;;;;;;;;;;;;;;26.47;39.05;95274.75;5037614;28;7252;-56
2024/02/17 07:55:15;;;;;;;;;;;;;;;26.47;39.28;95274.00;5044523;28;9023;-55
2024/02/17 07:58:01;;;;;;;;;;;;;;;26.47;39.19;95274.00;5048063;28;7066;-56
2024/02/17 08:01:03;;;;;;;;;;;;;;;26.47;39.14;95274.00;5036720;28;7644;-56
2024/02/17 08:03:44;;;;;;;;;;;;;;;26.46;39.28;95280.75;5012147;28;7250;-56
2024/02/17 08:06:23;;;;;;;;;;;;;;;26.48;39.35;95286.53;5012121;28;7255;-56
2024/02/17 08:09:10;;;;;;;;;;;;;;;26.46;39.34;95287.03;5009272;28;7233;-56
2024/02/17 08:11:37;;;;;;;;;;;;;;;26.44;39.13;95289.53;5005141;28;7254;-56
2024/02/17 08:14:04;;;;;;;;;;;;;;;26.44;39.29;95286.03;5014816;28;7240;-56
2024/02/17 08:16:30;;;;;;;;;;;;;;;26.48;39.31;95295.56;5009916;28;8942;-55
2024/02/17 08:18:58;;;;;;;;;;;;;;;26.49;40.12;95305.34;4993745;28;7480;-55
2024/02/17 08:21:30;;;;;;;;;;;;;;;26.47;39.47;95301.59;5001959;28;8830;-56
2024/02/17 08:24:02;;;;;;;;;;;;;;;26.46;39.22;95300.06;5018268;28;7215;-41
2024/02/17 08:26:29;;;;;;;;;;;;;;;26.44;39.29;95308.09;5007203;28;8899;-39
2024/02/17 08:28:56;;;;;;;;;;;;;;;26.46;40.21;95306.34;4994035;28;9487;-39
2024/02/17 08:31:23;;;;;;;;;;;;;;;26.44;40.00;95313.59;5006349;28;7884;-39
2024/02/17 08:33:49;;;;;;;;;;;;;;;26.48;39.61;95314.13;5008909;28;7990;-40
2024/02/17 08:36:19;;;;;;;;;;;;;;;26.46;39.76;95311.09;5012303;28;7239;-39
2024/02/17 08:38:52;;;;;;;;;;;;;;;26.43;39.71;95317.59;5033972;28;7145;-39
2024/02/17 08:41:27;;;;;;;;;;;;;;;26.44;39.38;95319.88;5042771;28;9171;-40
2024/02/17 08:43:53;;;;;;;;;;;;;;;26.44;39.42;95324.63;5033049;28;7252;-39
2024/02/17 08:46:24;;;;;;;;;;;;;;;26.44;39.85;95319.13;5033168;28;6955;-39
2024/02/17 08:48:50;;;;;;;;;;;;;;;26.43;39.67;95331.38;5033183;28;8788;-39
2024/02/17 08:51:35;;;;;;;;;;;;;;;26.44;39.60;95336.44;5042592;28;7229;-39
2024/02/17 08:54:01;;;;;;;;;;;;;;;26.43;39.96;95339.66;5039320;28;7317;-39
2024/02/17 08:56:33;;;;;;;;;;;;;;;26.39;39.80;95334.41;5033462;28;9076;-40
2024/02/17 08:59:09;;;;;;;;;;;;;;;26.41;40.10;95336.66;5034312;28;7190;-39
2024/02/17 09:01:36;;;;;;;;;;;;;;;26.41;39.87;95344.94;5041860;28;9344;-39
2024/02/17 09:04:03;;;;;;;;;;;;;;;26.43;40.15;95345.94;5037487;28;7058;-40
2024/02/17 09:06:30;;;;;;;;;;;;;;;26.42;40.03;95349.97;5033501;28;9204;-39
2024/02/17 09:08:58;;;;;;;;;;;;;;;26.42;40.48;95344.44;5034757;28;7228;-39
2024/02/17 09:11:33;;;;;;;;;;;;;;;26.44;40.27;95347.47;5020098;28;6865;-39
2024/02/17 09:14:00;;;;;;;;;;;;;;;26.42;39.93;95358.25;5036563;28;8100;-38
2024/02/17 09:16:35;;;;;;;;;;;;;;;26.47;39.76;95351.25;5041245;28;6983;-39
2024/02/17 09:19:03;;;;;;;;;;;;;;;26.47;39.76;95363.03;5037254;28;7281;-39
2024/02/17 09:21:30;;;;;;;;;;;;;;;26.48;39.43;95369.28;5041138;28;7001;-40
2024/02/17 09:24:00;;;;;;;;;;;;;;;26.47;39.46;95362.28;5036016;28;8917;-39
2024/02/17 09:26:28;;;;;;;;;;;;;;;26.44;39.84;95366.78;5039620;28;6972;-39
2024/02/17 09:28:54;;;;;;;;;;;;;;;26.48;39.54;95374.81;5040358;28;7032;-39
2024/02/17 09:31:22;;;;;;;;;;;;;;;26.47;39.71;95376.81;5035954;28;9070;-40
2024/02/17 09:33:51;;;;;;;;;;;;;;;26.44;39.87;95380.56;5041876;28;9093;-38
2024/02/17 09:36:30;;;;;;;;;;;;;;;26.47;39.74;95381.59;5033557;28;8072;-39
2024/02/17 09:38:56;;;;;;;;;;;;;;;26.49;39.71;95381.84;5038332;28;7232;-39
2024/02/17 09:41:24;;;;;;;;;;;;;;;26.51;39.65;95384.88;5035353;28;6990;-39
2024/02/17 09:43:50;;;;;;;;;;;;;;;26.48;39.67;95383.09;5037391;28;9060;-38
2024/02/17 09:46:20;;;;;;;;;;;;;;;26.44;39.80;95391.59;5036405;28;7292;-38
2024/02/17 09:48:46;;;;;;;;;;;;;;;26.46;39.89;95399.38;5036788;28;9072;-39
2024/02/17 09:51:14;;;;;;;;;;;;;;;26.46;39.95;95402.91;5037717;28;7181;-39
2024/02/17 09:53:41;;;;;;;;;;;;;;;26.46;40.02;95402.91;5041033;28;7210;-39
2024/02/17 09:56:07;;;;;;;;;;;;;;;26.43;39.69;95405.88;5036614;28;9033;-38
2024/02/17 09:58:35;;;;;;;;;;;;;;;26.46;39.97;95419.47;5038805;28;8903;-38
2024/02/17 10:01:01;;;;;;;;;;;;;;;26.41;40.41;95424.91;5039420;28;7422;-39
2024/02/17 10:03:29;;;;;;;;;;;;;;;26.40;40.02;95429.72;5039079;28;7079;-39
2024/02/17 10:06:19;;;;;;;;;;;;;;;26.40;39.80;95434.47;5034468;28;7285;-39
2024/02/17 10:08:49;;;;;;;;;;;;;;;26.44;39.65;95446.03;5035439;28;7448;-40
2024/02/17 10:11:21;;;;;;;;;;;;;;;26.41;40.35;95442.22;5006437;28;7681;-41
2024/02/17 10:13:59;;;;;;;;;;;;;;;26.45;40.69;95447.50;5035666;28;7004;-38
2024/02/17 10:16:32;;;;;;;;;;;;;;;26.47;40.97;95454.06;5026388;28;7203;-39
2024/02/17 10:19:05;;;;;;;;;;;;;;;26.44;40.95;95449.53;5035324;28;7817;-38
2024/02/17 10:21:37;;;;;;;;;;;;;;;26.46;40.39;95454.56;5026369;28;7233;-39
2024/02/17 10:24:05;;;;;;;;;;;;;;;26.48;40.96;95457.59;5035608;28;9191;-39
2024/02/17 10:26:32;;;;;;;;;;;;;;;26.50;40.61;95466.88;5034405;28;7421;-40
2024/02/17 10:29:05;;;;;;;;;;;;;;;26.50;40.63;95466.13;5033959;28;7001;-39
2024/02/17 10:31:33;;;;;;;;;;;;;;;26.51;40.66;95462.13;5035796;28;9036;-39
2024/02/17 10:33:59;;;;;;;;;;;;;;;26.49;41.14;95465.34;5043099;28;7383;-39
2024/02/17 10:36:26;;;;;;;;;;;;;;;26.47;40.85;95464.34;5039340;28;8180;-39
2024/02/17 10:38:54;;;;;;;;;;;;;;;26.48;40.75;95461.09;5039661;28;9036;-39
2024/02/17 10:41:26;;;;;;;;;;;;;;;26.49;41.31;95470.13;5035450;28;9284;-40
2024/02/17 10:43:52;;;;;;;;;;;;;;;26.49;40.88;95465.34;5038105;28;8721;-39
2024/02/17 10:46:25;;;;;;;;;;;;;;;26.49;40.87;95470.88;5019346;28;7162;-38
2024/02/17 10:49:24;;;;;;;;;;;;;;;26.45;40.80;95470.34;5036561;28;7227;-39
2024/02/17 10:52:29;;;;;;;;;;;;;;;26.45;40.73;95473.09;4993712;28;9228;-39
2024/02/17 10:55:05;;;;;;;;;;;;;;;26.43;41.10;95472.84;4947098;28;7561;-39
2024/02/17 10:57:53;;;;;;;;;;;;;;;26.45;41.01;95472.34;4980601;28;7285;-39
2024/02/17 11:00:20;;;;;;;;;;;;;;;26.46;40.23;95471.88;4974197;28;8737;-39
2024/02/17 11:02:50;;;;;;;;;;;;;;;26.47;40.68;95478.16;4990590;28;9131;-40
2024/02/17 11:05:22;;;;;;;;;;;;;;;26.50;40.09;95479.91;4953490;28;7279;-41
2024/02/17 11:08:07;;;;;;;;;;;;;;;26.51;40.86;95486.97;4958339;28;7612;-39
2024/02/17 11:10:44;;;;;;;;;;;;;;;26.50;40.70;95482.66;4955724;28;7375;-40
2024/02/17 11:16:45;;;;;;;;;;;;;;;26.41;41.08;95478.09;4935712;29;6998;-39
2024/02/17 11:19:13;;;;;;;;;;;;;;;26.45;40.53;95480.63;4920322;29;7159;-40
2024/02/17 11:22:05;;;;;;;;;;;;;;;26.42;40.47;95479.63;4917514;29;8923;-39
2024/02/17 11:24:35;;;;;;;;;;;;;;;26.46;40.52;95484.91;4911279;29;9389;-39
2024/02/17 11:27:08;;;;;;;;;;;;;;;26.46;40.33;95480.16;4935978;29;9205;-41
2024/02/17 11:29:41;;;;;;;;;;;;;;;26.47;40.69;95489.19;4968269;28;9082;-38
2024/02/17 11:32:17;;;;;;;;;;;;;;;26.44;40.58;95485.41;4974452;28;7066;-39
2024/02/17 11:35:02;;;;;;;;;;;;;;;26.47;40.57;95486.44;4958149;28;9361;-38
2024/02/17 11:37:29;;;;;;;;;;;;;;;26.50;40.34;95479.91;4988383;28;7360;-39
2024/02/17 11:40:13;;;;;;;;;;;;;;;26.50;40.47;95482.66;4979153;28;8463;-39
2024/02/17 11:42:42;;;;;;;;;;;;;;;26.48;40.57;95493.44;4973799;28;7282;-38
2024/02/17 11:45:08;;;;;;;;;;;;;;;26.47;40.52;95486.44;4973417;28;9432;-39
2024/02/17 11:47:37;;;;;;;;;;;;;;;26.50;40.48;95482.66;4974328;28;7031;-39
2024/02/17 11:50:10;;;;;;;;;;;;;;;26.48;41.07;95485.16;4956087;28;6944;-38
2024/02/17 11:52:41;;;;;;;;;;;;;;;26.48;40.21;95485.16;4988367;28;7167;-56
2024/02/17 11:55:27;;;;;;;;;;;;;;;26.46;40.33;95487.66;5036539;28;6991;-56
2024/02/17 11:58:05;;;;;;;;;;;;;;;26.49;40.99;95486.69;5033543;28;7201;-56
2024/02/17 12:00:34;;;;;;;;;;;;;;;26.50;40.37;95488.94;5015823;28;7258;-56
2024/02/17 12:03:01;;;;;;;;;;;;;;;26.51;40.42;95495.22;5040432;28;7886;-56
2024/02/17 12:05:32;;;;;;;;;;;;;;;26.53;39.99;95498.25;5033857;28;7882;-56
2024/02/17 12:08:25;;;;;;;;;;;;;;;26.53;40.52;95495.50;5033475;28;7070;-56
2024/02/17 12:11:17;;;;;;;;;;;;;;;26.52;40.38;95493.97;5005479;28;7019;-56
2024/02/17 12:14:16;;;;;;;;;;;;;;;26.50;40.24;95499.22;5016013;28;7311;-56
2024/02/17 12:16:44;;;;;;;;;;;;;;;26.49;40.52;95501.22;4915845;29;7541;-56
2024/02/17 12:19:11;;;;;;;;;;;;;;;26.51;40.67;95501.50;4898582;29;7247;-56
2024/02/17 12:21:41;;;;;;;;;;;;;;;26.50;40.49;95500.00;4909218;29;7160;-55
2024/02/17 12:24:09;;;;;;;;;;;;;;;26.50;40.60;95504.75;4899630;29;9168;-56
2024/02/17 12:26:46;;;;;;;;;;;;;;;26.48;40.23;95493.44;4897469;29;7405;-56
2024/02/17 12:29:21;;;;;;;;;;;;;;;26.50;40.23;95493.72;4900604;29;9247;-56
2024/02/17 12:31:51;;;;;;;;;;;;;;;26.48;40.24;95498.97;4900062;29;7660;-56
2024/02/17 12:34:33;;;;;;;;;;;;;;;26.49;40.31;95492.94;4899687;29;6983;-52
2024/02/17 12:37:03;;;;;;;;;;;;;;;26.46;39.65;95498.69;4898490;29;7237;-56
2024/02/17 12:39:30;;;;;;;;;;;;;;;26.50;39.75;95496.47;4898318;29;8886;-55
2024/02/17 12:42:04;;;;;;;;;;;;;;;26.48;40.22;95496.22;4897418;29;7438;-55
2024/02/17 12:44:33;;;;;;;;;;;;;;;26.46;39.61;95498.69;4883155;29;8937;-56
2024/02/17 12:47:12;;;;;;;;;;;;;;;26.44;39.94;95492.91;4910007;29;7347;-56
2024/02/17 12:49:39;;;;;;;;;;;;;;;26.39;39.89;95499.13;4919780;29;7469;-56
2024/02/17 12:52:10;;;;;;;;;;;;;;;26.43;39.70;95499.66;4935775;28;7073;-56
2024/02/17 12:54:55;;;;;;;;;;;;;;;26.43;40.17;95499.66;5049795;28;8997;-56
2024/02/17 12:57:52;;;;;;;;;;;;;;;26.43;39.56;95497.66;5039237;28;7407;-56
2024/02/17 13:00:21;;;;;;;;;;;;;;;26.39;40.14;95496.38;5037362;28;7266;-56
2024/02/17 13:03:04;;;;;;;;;;;;;;;26.42;40.05;95492.66;5033182;28;6975;-38
2024/02/17 13:05:29;;;;;;;;;;;;;;;26.43;39.57;95494.16;5034361;28;8775;-38
2024/02/17 13:11:34;;;;;;;;;;;;;;;26.44;40.07;95490.91;5033060;28;7252;-38
2024/02/17 13:14:15;;;;;;;;;;;;;;;26.44;39.69;95487.41;5033352;28;7076;-38
2024/02/17 13:16:50;;;;;;;;;;;;;;;26.46;40.22;95496.69;5034165;28;7180;-38
2024/02/17 13:19:16;;;;;;;;;;;;;;;26.45;39.60;95495.19;5032920;28;7231;-38
2024/02/17 13:21:49;;;;;;;;;;;;;;;26.42;39.72;95496.19;5033198;28;7295;-38
2024/02/17 13:24:47;;;;;;;;;;;;;;;26.41;39.57;95491.88;5032952;28;7216;-38
2024/02/17 13:27:38;;;;;;;;;;;;;;;26.43;40.11;95494.91;5033957;28;9034;-38
2024/02/17 13:30:59;;;;;;;;;;;;;;;26.44;40.12;95492.91;5029488;28;7197;-38
2024/02/17 13:33:27;;;;;;;;;;;;;;;26.40;40.57;95484.88;5008892;28;7503;-38
2024/02/17 13:36:18;;;;;;;;;;;;;;;26.47;40.24;95495.44;4997548;28;6998;-38
2024/02/17 13:38:52;;;;;;;;;;;;;;;26.45;40.02;95491.66;4974478;28;7188;-38
2024/02/17 13:44:49;;;;;;;;;;;;;;;26.43;40.07;95494.16;4987571;28;8833;-38
2024/02/17 13:47:18;;;;;;;;;;;;;;;26.41;40.04;95496.66;4991753;28;7210;-38
2024/02/17 13:49:44;;;;;;;;;;;;;;;26.42;40.51;95503.69;4975722;28;9224;-38
2024/02/17 13:52:30;;;;;;;;;;;;;;;26.42;40.20;95507.22;4979500;28;7587;-38